TimeCST,TemperatureF,Dew PointF,Humidity,Sea Level PressureIn,VisibilityMPH,Wind Direction,Wind SpeedMPH,Gust SpeedMPH,PrecipitationIn,Events,Conditions,WindDirDegrees,DateUTC
12:14 AM,39.2,35.6,87,30.00,10.0,SE,8.1,-,N/A,,Clear,140,2013-11-03 05:14:00
12:33 AM,37.4,33.8,87,30.00,10.0,SE,8.1,-,N/A,,Clear,140,2013-11-03 05:33:00
12:54 AM,37.4,33.8,87,29.99,10.0,SE,8.1,-,N/A,,Clear,130,2013-11-03 05:54:00
1:13 AM,35.6,33.8,93,29.99,10.0,SE,8.1,-,N/A,,Clear,140,2013-11-03 06:13:00
1:33 AM,35.6,32.0,87,29.99,10.0,SE,6.9,-,N/A,,Clear,140,2013-11-03 06:33:00
1:54 AM,35.6,33.8,93,29.99,10.0,SSE,8.1,-,N/A,,Clear,150,2013-11-03 06:54:00
1:14 AM,35.6,32.0,87,29.98,10.0,SE,8.1,-,N/A,,Clear,140,2013-11-03 07:14:00
1:33 AM,35.6,32.0,87,29.98,10.0,SE,6.9,-,N/A,,Clear,140,2013-11-03 07:33:00
1:54 AM,35.6,32.0,87,29.98,10.0,SE,8.1,-,N/A,,Clear,140,2013-11-03 07:54:00
2:14 AM,35.6,32.0,87,29.96,10.0,SE,8.1,-,N/A,,Clear,140,2013-11-03 08:14:00
2:33 AM,35.6,32.0,87,29.95,10.0,SE,9.2,-,N/A,,Clear,130,2013-11-03 08:33:00
2:54 AM,35.6,32.0,87,29.94,10.0,SE,10.4,-,N/A,,Clear,130,2013-11-03 08:54:00
3:13 AM,35.6,32.0,87,29.93,10.0,SE,11.5,-,N/A,,Clear,130,2013-11-03 09:13:00
3:34 AM,37.4,32.0,81,29.92,10.0,SE,9.2,-,N/A,,Clear,130,2013-11-03 09:34:00
3:54 AM,37.4,32.0,81,29.91,10.0,SE,10.4,-,N/A,,Clear,130,2013-11-03 09:54:00
4:13 AM,37.4,32.0,81,29.90,10.0,SE,11.5,-,N/A,,Clear,130,2013-11-03 10:13:00
4:34 AM,37.4,32.0,81,29.90,10.0,SE,11.5,-,N/A,,Clear,140,2013-11-03 10:34:00
4:54 AM,37.4,32.0,81,29.89,10.0,SE,13.8,-,N/A,,Clear,140,2013-11-03 10:54:00
5:13 AM,37.4,32.0,81,29.89,10.0,SE,13.8,-,N/A,,Clear,130,2013-11-03 11:13:00
5:34 AM,35.6,32.0,87,29.88,10.0,SE,11.5,-,N/A,,Clear,130,2013-11-03 11:34:00
5:53 AM,37.4,32.0,81,29.88,10.0,SE,12.7,-,N/A,,Clear,130,2013-11-03 11:53:00
6:13 AM,37.4,32.0,81,29.87,10.0,SE,11.5,-,N/A,,Clear,130,2013-11-03 12:13:00
6:34 AM,37.4,32.0,81,29.86,10.0,SE,12.7,-,N/A,,Clear,140,2013-11-03 12:34:00
6:53 AM,37.4,33.8,87,29.85,10.0,SE,11.5,-,N/A,,Clear,140,2013-11-03 12:53:00
7:13 AM,39.2,33.8,81,29.85,10.0,SE,16.1,-,N/A,,Clear,140,2013-11-03 13:13:00
7:34 AM,39.2,33.8,81,29.84,10.0,SE,16.1,-,N/A,,Clear,140,2013-11-03 13:34:00
7:53 AM,39.2,33.8,81,29.84,10.0,SSE,16.1,-,N/A,,Clear,150,2013-11-03 13:53:00
8:14 AM,41.0,33.8,76,29.83,10.0,SSE,19.6,-,N/A,,Clear,150,2013-11-03 14:14:00
8:34 AM,42.8,35.6,76,29.82,10.0,SSE,20.7,26.5,N/A,,Clear,150,2013-11-03 14:34:00
8:53 AM,42.8,35.6,76,29.82,10.0,SSE,20.7,26.5,N/A,,Clear,150,2013-11-03 14:53:00
9:14 AM,46.4,35.6,66,29.80,10.0,SSE,23.0,28.8,N/A,,Clear,150,2013-11-03 15:14:00
9:34 AM,46.4,35.6,66,29.79,10.0,SE,23.0,28.8,N/A,,Clear,140,2013-11-03 15:34:00
9:53 AM,48.2,35.6,62,29.78,10.0,SSE,21.9,27.6,N/A,,Clear,150,2013-11-03 15:53:00
10:14 AM,53.6,35.6,51,29.76,10.0,SSE,26.5,33.4,N/A,,Clear,150,2013-11-03 16:14:00
10:34 AM,55.4,33.8,44,29.76,10.0,SSE,26.5,33.4,N/A,,Clear,160,2013-11-03 16:34:00
10:53 AM,55.4,30.2,38,29.75,10.0,SSE,32.2,39.1,N/A,,Clear,160,2013-11-03 16:53:00
11:14 AM,57.2,28.4,33,29.74,10.0,South,32.2,38.0,N/A,,Clear,170,2013-11-03 17:14:00
11:33 AM,57.2,26.6,31,29.73,10.0,South,33.4,43.7,N/A,,Clear,180,2013-11-03 17:33:00
11:54 AM,57.2,26.6,31,29.73,10.0,South,32.2,36.8,N/A,,Clear,170,2013-11-03 17:54:00
12:14 PM,59.0,28.4,31,29.72,10.0,South,34.5,44.9,N/A,,Clear,170,2013-11-03 18:14:00
12:33 PM,57.2,28.4,33,29.72,10.0,South,29.9,38.0,N/A,,Clear,170,2013-11-03 18:33:00
12:54 PM,60.8,30.2,31,29.71,10.0,South,26.5,39.1,N/A,,Clear,180,2013-11-03 18:54:00
1:14 PM,60.8,28.4,29,29.70,10.0,South,33.4,39.1,N/A,,Clear,170,2013-11-03 19:14:00
1:33 PM,59.0,28.4,31,29.70,10.0,South,28.8,35.7,N/A,,Clear,180,2013-11-03 19:33:00
1:54 PM,59.0,30.2,34,29.70,10.0,South,26.5,44.9,N/A,,Clear,180,2013-11-03 19:54:00
2:14 PM,59.0,30.2,34,29.69,10.0,South,25.3,35.7,N/A,,Clear,170,2013-11-03 20:14:00
2:33 PM,60.8,30.2,31,29.69,10.0,South,25.3,35.7,N/A,,Clear,170,2013-11-03 20:33:00
2:54 PM,60.8,30.2,31,29.69,10.0,South,28.8,35.7,N/A,,Clear,180,2013-11-03 20:54:00
3:13 PM,60.8,33.8,36,29.69,10.0,South,23.0,34.5,N/A,,Clear,180,2013-11-03 21:13:00
3:33 PM,59.0,33.8,39,29.68,10.0,South,28.8,36.8,N/A,,Clear,180,2013-11-03 21:33:00
3:54 PM,57.2,33.8,41,29.69,10.0,South,18.4,21.9,N/A,,Clear,180,2013-11-03 21:54:00
4:13 PM,57.2,33.8,41,29.69,10.0,South,20.7,24.2,N/A,,Clear,170,2013-11-03 22:13:00
4:33 PM,57.2,33.8,41,29.69,10.0,South,20.7,25.3,N/A,,Clear,170,2013-11-03 22:33:00
4:54 PM,57.2,33.8,41,29.69,10.0,South,16.1,24.2,N/A,,Clear,170,2013-11-03 22:54:00
5:13 PM,55.4,33.8,44,29.69,10.0,SSE,20.7,-,N/A,,Clear,160,2013-11-03 23:13:00
5:34 PM,55.4,33.8,44,29.69,10.0,SSE,19.6,25.3,N/A,,Clear,150,2013-11-03 23:34:00
5:54 PM,55.4,33.8,44,29.69,10.0,SSE,19.6,-,N/A,,Clear,150,2013-11-03 23:54:00
6:13 PM,55.4,33.8,44,29.69,10.0,SSE,17.3,26.5,N/A,,Clear,150,2013-11-04 00:13:00
6:34 PM,53.6,33.8,47,29.70,10.0,SSE,18.4,-,N/A,,Clear,150,2013-11-04 00:34:00
6:53 PM,53.6,33.8,47,29.70,10.0,SSE,20.7,26.5,N/A,,Clear,150,2013-11-04 00:53:00
7:14 PM,53.6,33.8,47,29.69,10.0,SSE,19.6,28.8,N/A,,Clear,150,2013-11-04 01:14:00
7:34 PM,53.6,35.6,51,29.70,10.0,SSE,18.4,-,N/A,,Clear,150,2013-11-04 01:34:00
7:53 PM,51.8,33.8,50,29.70,10.0,SSE,18.4,24.2,N/A,,Clear,150,2013-11-04 01:53:00
8:14 PM,51.8,35.6,54,29.70,10.0,SSE,17.3,-,N/A,,Clear,150,2013-11-04 02:14:00
8:33 PM,51.8,35.6,54,29.70,10.0,SSE,18.4,-,N/A,,Scattered Clouds,150,2013-11-04 02:33:00
8:54 PM,51.8,35.6,54,29.70,10.0,SSE,20.7,25.3,N/A,,Mostly Cloudy,150,2013-11-04 02:54:00
9:13 PM,51.8,35.6,54,29.70,10.0,SSE,20.7,-,N/A,,Mostly Cloudy,150,2013-11-04 03:13:00
9:34 PM,51.8,35.6,54,29.70,10.0,SSE,18.4,25.3,N/A,,Scattered Clouds,150,2013-11-04 03:34:00
9:53 PM,51.8,35.6,54,29.70,10.0,SSE,17.3,-,N/A,,Clear,160,2013-11-04 03:53:00
10:14 PM,51.8,37.4,58,29.70,10.0,SSE,19.6,-,N/A,,Scattered Clouds,160,2013-11-04 04:14:00
10:34 PM,51.8,37.4,58,29.70,10.0,SSE,20.7,25.3,N/A,,Scattered Clouds,160,2013-11-04 04:34:00
10:53 PM,50.0,37.4,62,29.70,10.0,SSE,19.6,-,N/A,,Scattered Clouds,160,2013-11-04 04:53:00